createdAt,value
2022-08-29T00:01:40.814Z,8.07
2022-08-29T00:04:07.991Z,8.93
2022-08-29T00:06:34.536Z,8.57
2022-08-29T00:09:01.017Z,7.95
2022-08-29T00:11:27.558Z,8.65
2022-08-29T00:13:53.881Z,7.72
2022-08-29T00:16:20.299Z,8.32
2022-08-29T00:18:46.738Z,7.93
2022-08-29T00:21:13.078Z,6.85
2022-08-29T00:23:39.382Z,8.57
2022-08-29T00:26:06.669Z,8.90
2022-08-29T00:28:33.049Z,7.90
2022-08-29T00:30:59.438Z,7.35
2022-08-29T00:33:25.742Z,7.32
2022-08-29T00:35:52.053Z,7.93
2022-08-29T00:38:19.325Z,7.25
2022-08-29T00:40:51.475Z,7.50
2022-08-29T00:43:18.569Z,7.55
2022-08-29T00:45:44.985Z,8.98
2022-08-29T00:48:11.378Z,8.30
2022-08-29T00:50:37.691Z,8.05
2022-08-29T00:53:04.204Z,7.10
2022-08-29T00:55:30.533Z,7.55
2022-08-29T00:57:56.853Z,7.30
2022-08-29T01:00:23.186Z,7.43
2022-08-29T01:02:49.553Z,7.40
2022-08-29T01:05:15.845Z,7.53
2022-08-29T01:07:44.400Z,7.45
2022-08-29T01:10:13.288Z,6.95
2022-08-29T01:12:40.277Z,6.70
2022-08-29T01:15:06.641Z,7.05
2022-08-29T01:17:33.042Z,7.32
2022-08-29T01:19:59.372Z,6.55
2022-08-29T01:22:25.750Z,6.65
2022-08-29T01:24:52.994Z,7.15
2022-08-29T01:27:19.318Z,7.30
2022-08-29T01:29:45.810Z,7.05
2022-08-29T01:32:12.228Z,7.25
2022-08-29T01:34:38.574Z,7.90
2022-08-29T01:37:04.889Z,8.73
2022-08-29T01:39:31.227Z,7.20
2022-08-29T01:41:57.556Z,7.47
2022-08-29T01:44:23.878Z,7.03
2022-08-29T01:46:50.163Z,7.07
2022-08-29T01:49:16.420Z,6.88
2022-08-29T01:51:42.973Z,6.38
2022-08-29T01:54:09.286Z,7.25
2022-08-29T01:56:35.642Z,7.05
2022-08-29T01:59:01.967Z,7.88
2022-08-29T02:01:29.036Z,9.15
2022-08-29T02:03:55.574Z,7.22
2022-08-29T02:06:21.890Z,6.75
2022-08-29T02:08:48.252Z,6.95
2022-08-29T02:11:14.666Z,6.65
2022-08-29T02:13:41.072Z,6.53
2022-08-29T02:16:07.442Z,6.63
2022-08-29T02:18:33.766Z,6.22
2022-08-29T02:21:00.204Z,6.93
2022-08-29T02:23:30.930Z,7.40
2022-08-29T02:25:57.953Z,6.63
2022-08-29T02:28:24.457Z,6.85
2022-08-29T02:30:56.317Z,7.03
2022-08-29T02:33:23.346Z,6.03
2022-08-29T02:35:49.776Z,6.50
2022-08-29T02:38:16.613Z,6.60
2022-08-29T02:40:43.170Z,6.97
2022-08-29T02:43:09.525Z,8.10
2022-08-29T02:45:35.810Z,6.50
2022-08-29T02:48:02.246Z,6.47
2022-08-29T02:50:28.550Z,6.60
2022-08-29T02:52:54.887Z,6.88
2022-08-29T02:55:21.225Z,7.05
2022-08-29T02:57:47.945Z,6.20
2022-08-29T03:00:14.261Z,6.47
2022-08-29T03:02:40.670Z,6.97
2022-08-29T03:05:07.079Z,6.68
2022-08-29T03:07:33.384Z,6.97
2022-08-29T03:09:59.898Z,6.55
2022-08-29T03:12:26.530Z,6.00
2022-08-29T03:14:56.847Z,6.43
2022-08-29T03:17:23.301Z,5.93
2022-08-29T03:19:49.634Z,6.45
2022-08-29T03:22:16.017Z,5.72
2022-08-29T03:24:42.365Z,5.93
2022-08-29T03:27:08.718Z,6.25
2022-08-29T03:29:35.750Z,5.47
2022-08-29T03:32:02.174Z,6.05
2022-08-29T03:34:28.505Z,6.63
2022-08-29T03:36:54.846Z,6.60
2022-08-29T03:39:22.354Z,6.50
2022-08-29T03:41:48.970Z,5.90
2022-08-29T03:44:15.285Z,8.13
2022-08-29T03:46:42.343Z,5.65
2022-08-29T03:49:08.818Z,6.40
2022-08-29T03:51:35.134Z,6.88
2022-08-29T03:54:01.471Z,7.55
2022-08-29T03:56:27.877Z,6.32
2022-08-29T03:58:55.780Z,5.90
2022-08-29T04:01:22.072Z,5.72
2022-08-29T04:03:48.818Z,6.00
2022-08-29T04:06:15.194Z,6.75
2022-08-29T04:08:41.663Z,5.78
2022-08-29T04:11:08.130Z,6.43
2022-08-29T04:13:34.549Z,7.18
2022-08-29T04:16:00.929Z,7.25
2022-08-29T04:18:27.353Z,5.65
2022-08-29T04:20:53.998Z,6.03
2022-08-29T04:23:20.420Z,5.88
2022-08-29T04:25:46.993Z,6.85
2022-08-29T04:28:13.528Z,5.88
2022-08-29T04:30:39.987Z,5.35
2022-08-29T04:33:06.310Z,5.72
2022-08-29T04:35:32.833Z,6.35
2022-08-29T04:37:59.274Z,5.70
2022-08-29T04:40:25.637Z,6.72
2022-08-29T04:42:52.077Z,7.65
2022-08-29T04:45:18.429Z,5.95
2022-08-29T04:47:44.702Z,7.00
2022-08-29T04:50:11.249Z,6.18
2022-08-29T04:52:39.106Z,5.53
2022-08-29T04:55:05.438Z,8.43
2022-08-29T04:57:31.733Z,6.95
2022-08-29T04:59:58.043Z,7.03
2022-08-29T05:02:24.827Z,6.35
2022-08-29T05:04:51.406Z,6.57
2022-08-29T05:07:17.782Z,6.70
2022-08-29T05:09:44.158Z,6.60
2022-08-29T05:12:10.472Z,6.13
2022-08-29T05:14:36.926Z,5.72
2022-08-29T05:17:03.253Z,5.78
2022-08-29T05:19:34.490Z,5.88
2022-08-29T05:22:01.898Z,6.05
2022-08-29T05:24:28.360Z,6.47
2022-08-29T05:26:54.701Z,7.85
2022-08-29T05:29:21.622Z,6.70
2022-08-29T05:31:48.020Z,5.18
2022-08-29T05:34:32.752Z,5.78
2022-08-29T05:37:00.717Z,5.25
2022-08-29T05:39:26.974Z,6.57
2022-08-29T05:41:53.306Z,6.03
2022-08-29T05:44:19.645Z,6.10
2022-08-29T05:46:46.303Z,5.63
2022-08-29T05:49:12.666Z,5.93
2022-08-29T05:51:39.956Z,5.65
2022-08-29T05:54:06.373Z,8.95
2022-08-29T05:56:32.731Z,6.95
2022-08-29T05:58:59.110Z,7.13
2022-08-29T06:01:27.519Z,6.40
2022-08-29T06:03:54.767Z,6.18
2022-08-29T06:06:22.678Z,6.90
2022-08-29T06:08:49.510Z,10.15
2022-08-29T06:11:16.094Z,16.10
2022-08-29T06:13:42.457Z,14.98
2022-08-29T06:16:08.817Z,16.17
2022-08-29T06:18:36.133Z,14.45
2022-08-29T06:21:02.830Z,11.48
2022-08-29T06:23:29.197Z,12.35
2022-08-29T06:25:56.721Z,10.77
2022-08-29T06:28:24.168Z,15.30
2022-08-29T06:30:50.644Z,10.38
2022-08-29T06:33:18.886Z,11.55
2022-08-29T06:35:45.561Z,14.23
2022-08-29T06:38:14.038Z,12.65
2022-08-29T06:40:41.541Z,9.65
2022-08-29T06:43:07.995Z,13.48
2022-08-29T06:45:34.414Z,10.13
2022-08-29T06:48:00.774Z,11.38
2022-08-29T06:50:27.290Z,10.13
2022-08-29T06:52:55.668Z,9.88
2022-08-29T06:55:24.082Z,10.73
2022-08-29T06:57:50.650Z,11.27
2022-08-29T07:00:22.030Z,10.25
2022-08-29T07:02:52.414Z,9.77
2022-08-29T07:07:47.320Z,11.65
2022-08-29T07:10:16.481Z,10.82
2022-08-29T07:12:45.068Z,12.05
2022-08-29T07:15:11.663Z,8.88
2022-08-29T07:17:38.309Z,9.77
2022-08-29T07:20:04.666Z,9.43
2022-08-29T07:22:30.974Z,9.57
2022-08-29T07:24:57.273Z,11.30
2022-08-29T07:27:23.878Z,11.25
2022-08-29T07:29:50.846Z,8.80
2022-08-29T07:32:17.225Z,8.18
2022-08-29T07:34:43.833Z,8.32
2022-08-29T07:37:10.133Z,9.55
2022-08-29T07:39:36.621Z,9.18
2022-08-29T07:42:03.253Z,9.93
2022-08-29T07:44:30.300Z,9.48
2022-08-29T07:47:01.054Z,9.60
2022-08-29T07:49:40.333Z,9.30
2022-08-29T07:54:43.953Z,9.65
2022-08-29T07:57:10.533Z,9.95
2022-08-29T07:59:37.166Z,9.60
2022-08-29T08:02:03.581Z,7.68
2022-08-29T08:04:29.949Z,10.32
2022-08-29T08:06:56.613Z,9.82
2022-08-29T08:09:22.922Z,9.07
2022-08-29T08:11:49.219Z,8.48
2022-08-29T08:14:15.561Z,10.35
2022-08-29T08:16:44.249Z,9.80
2022-08-29T08:19:14.473Z,10.15
2022-08-29T08:21:44.345Z,7.22
2022-08-29T08:24:19.604Z,8.10
2022-08-29T08:26:46.410Z,9.20
2022-08-29T08:29:12.722Z,9.05
2022-08-29T08:31:41.385Z,10.13
2022-08-29T08:34:07.837Z,9.73
2022-08-29T08:36:38.799Z,9.05
2022-08-29T08:39:07.100Z,8.55
2022-08-29T08:41:34.834Z,9.15
2022-08-29T08:44:01.785Z,8.57
2022-08-29T08:46:28.235Z,8.75
2022-08-29T08:48:54.712Z,9.38
2022-08-29T08:51:21.078Z,9.88
2022-08-29T08:53:47.344Z,8.40
2022-08-29T08:56:13.626Z,8.10
2022-08-29T08:58:40.046Z,9.98
2022-08-29T09:01:06.478Z,10.10
2022-08-29T09:03:34.058Z,9.52
2022-08-29T09:06:00.407Z,9.77
2022-08-29T09:08:26.759Z,8.63
2022-08-29T09:10:58.052Z,11.52
2022-08-29T09:13:25.265Z,9.02
2022-08-29T09:15:51.802Z,11.38
2022-08-29T09:18:23.373Z,10.50
2022-08-29T09:20:50.992Z,10.65
2022-08-29T09:23:17.334Z,10.02
2022-08-29T09:25:43.768Z,8.38
2022-08-29T09:28:10.148Z,10.40
2022-08-29T09:30:36.477Z,9.95
2022-08-29T09:33:02.875Z,10.45
2022-08-29T09:35:29.298Z,10.63
2022-08-29T09:37:55.589Z,9.00
2022-08-29T09:40:24.024Z,9.60
2022-08-29T09:42:50.397Z,10.38
2022-08-29T09:45:18.001Z,9.60
2022-08-29T09:47:44.473Z,8.75
2022-08-29T09:50:10.841Z,10.93
2022-08-29T09:52:37.334Z,10.15
2022-08-29T09:55:03.685Z,12.40
2022-08-29T09:57:29.990Z,12.70
2022-08-29T09:59:56.415Z,17.38
2022-08-29T10:02:23.012Z,17.13
2022-08-29T10:04:49.473Z,19.17
2022-08-29T10:07:15.877Z,32.17
2022-08-29T10:09:43.457Z,31.58
2022-08-29T10:12:09.767Z,33.33
2022-08-29T10:14:36.218Z,42.03
2022-08-29T10:17:02.847Z,37.40
2022-08-29T10:19:33.133Z,35.58
2022-08-29T10:22:00.971Z,44.22
2022-08-29T10:24:27.353Z,44.75
2022-08-29T10:26:53.778Z,44.30
2022-08-29T10:29:20.092Z,44.53
2022-08-29T10:31:47.043Z,52.58
2022-08-29T10:34:13.590Z,54.15
2022-08-29T10:36:39.933Z,51.80
2022-08-29T10:39:06.378Z,59.60
2022-08-29T10:41:32.831Z,57.70
2022-08-29T10:43:59.231Z,57.50
2022-08-29T10:46:25.632Z,59.83
2022-08-29T10:48:51.974Z,62.30
2022-08-29T10:51:18.554Z,68.22
2022-08-29T10:53:44.919Z,66.28
2022-08-29T10:56:11.207Z,63.25
2022-08-29T10:58:37.518Z,67.60
2022-08-29T11:01:08.903Z,67.45
2022-08-29T11:03:35.706Z,70.20
2022-08-29T11:06:02.085Z,65.43
2022-08-29T11:08:28.446Z,62.35
2022-08-29T11:10:54.754Z,62.35
2022-08-29T11:13:21.072Z,59.72
2022-08-29T11:15:48.547Z,55.75
2022-08-29T11:18:15.521Z,57.38
2022-08-29T11:20:48.611Z,57.67
2022-08-29T11:23:14.934Z,55.55
2022-08-29T11:25:41.273Z,49.63
2022-08-29T11:28:07.687Z,57.42
2022-08-29T11:30:37.543Z,52.35
2022-08-29T11:33:06.314Z,54.90
2022-08-29T11:35:32.688Z,50.90
2022-08-29T11:37:59.020Z,52.63
2022-08-29T11:43:12.410Z,50.58
2022-08-29T11:45:39.360Z,55.45
2022-08-29T11:48:05.683Z,47.33
2022-08-29T11:50:32.021Z,49.28
2022-08-29T11:52:59.221Z,51.67
2022-08-29T11:55:25.829Z,44.75
2022-08-29T11:57:52.173Z,47.00
2022-08-29T12:00:18.626Z,25.77
2022-08-29T12:02:48.805Z,24.40
2022-08-29T12:05:15.399Z,21.23
2022-08-29T12:07:41.834Z,20.13
2022-08-29T12:10:08.153Z,22.92
2022-08-29T12:12:34.479Z,24.33
2022-08-29T12:15:00.878Z,75.25
2022-08-29T12:17:44.876Z,98.30
2022-08-29T12:20:13.676Z,141.32
2022-08-29T12:25:13.248Z,128.07
2022-08-29T12:27:39.571Z,123.90
2022-08-29T12:30:05.934Z,128.43
2022-08-29T12:32:32.376Z,132.20
2022-08-29T12:34:59.184Z,132.25
2022-08-29T12:37:25.602Z,134.65
2022-08-29T12:39:51.961Z,130.32
2022-08-29T12:42:18.490Z,132.63
2022-08-29T12:44:44.902Z,131.02
2022-08-29T12:47:11.474Z,129.57
2022-08-29T12:49:37.834Z,128.10
2022-08-29T12:52:04.285Z,129.38
2022-08-29T12:54:30.820Z,130.15
2022-08-29T12:56:58.369Z,119.60
2022-08-29T12:59:24.751Z,124.32
2022-08-29T13:01:56.124Z,126.50
2022-08-29T13:04:22.648Z,123.55
2022-08-29T13:06:49.578Z,116.90
2022-08-29T13:09:16.022Z,124.05
2022-08-29T13:11:44.153Z,125.13
2022-08-29T13:14:10.685Z,123.82
2022-08-29T13:16:37.123Z,118.57
2022-08-29T13:19:11.806Z,118.00
2022-08-29T13:21:38.309Z,116.88
2022-08-29T13:24:04.617Z,114.82
2022-08-29T13:26:30.935Z,111.13
2022-08-29T13:28:57.207Z,117.90
2022-08-29T13:31:23.646Z,112.93
2022-08-29T13:33:50.286Z,113.07
2022-08-29T13:36:16.629Z,107.13
2022-08-29T13:38:43.077Z,111.00
2022-08-29T13:41:09.426Z,111.20
2022-08-29T13:43:35.795Z,105.93
2022-08-29T13:46:02.292Z,103.40
2022-08-29T13:48:28.672Z,101.40
2022-08-29T13:50:55.098Z,102.07
2022-08-29T13:53:21.720Z,101.70
2022-08-29T13:55:48.070Z,99.07
2022-08-29T13:58:14.733Z,96.30
2022-08-29T14:00:43.262Z,95.80
2022-08-29T14:03:09.750Z,98.63
2022-08-29T14:05:36.189Z,92.82
2022-08-29T14:08:02.574Z,96.00
2022-08-29T14:10:28.919Z,91.85
2022-08-29T14:12:55.260Z,95.95
2022-08-29T14:15:21.832Z,98.95
2022-08-29T14:17:48.306Z,91.93
2022-08-29T14:20:14.797Z,93.05
2022-08-29T14:22:41.153Z,89.60
2022-08-29T14:25:07.469Z,89.40
2022-08-29T14:27:33.840Z,93.65
2022-08-29T14:30:00.310Z,88.40
2022-08-29T14:32:26.793Z,86.50
2022-08-29T14:34:53.336Z,85.82
2022-08-29T14:37:19.822Z,89.38
2022-08-29T14:39:49.674Z,85.63
2022-08-29T14:42:16.880Z,89.35
2022-08-29T14:44:43.332Z,86.82
2022-08-29T14:47:09.644Z,84.85
2022-08-29T14:49:36.922Z,85.88
2022-08-29T14:52:03.226Z,85.00
2022-08-29T14:54:29.515Z,84.03
2022-08-29T14:56:55.882Z,83.20
2022-08-29T14:59:22.176Z,82.82
2022-08-29T15:01:54.379Z,86.38
2022-08-29T15:04:21.711Z,82.40
2022-08-29T15:07:01.200Z,79.90
2022-08-29T15:09:28.141Z,79.43
2022-08-29T15:11:54.489Z,79.20
2022-08-29T15:14:20.869Z,78.75
2022-08-29T15:16:47.296Z,79.47
2022-08-29T15:22:00.015Z,74.90
2022-08-29T15:24:29.786Z,73.25
2022-08-29T15:26:56.242Z,72.75
2022-08-29T15:29:22.571Z,74.78
2022-08-29T15:31:48.890Z,74.28
2022-08-29T15:34:15.412Z,72.88
2022-08-29T15:36:41.927Z,70.80
2022-08-29T15:39:11.116Z,70.93
2022-08-29T15:41:37.485Z,68.95
2022-08-29T15:44:03.958Z,68.40
2022-08-29T15:46:30.389Z,70.72
2022-08-29T15:48:56.772Z,68.60
2022-08-29T15:51:23.135Z,68.88
2022-08-29T15:53:49.447Z,65.75
2022-08-29T15:56:15.934Z,65.82
2022-08-29T15:58:42.364Z,63.08
2022-08-29T16:01:09.259Z,66.18
2022-08-29T16:03:35.708Z,62.53
2022-08-29T16:06:02.006Z,62.00
2022-08-29T16:08:29.728Z,63.53
2022-08-29T16:10:56.389Z,61.67
2022-08-29T16:13:22.984Z,60.35
2022-08-29T16:15:49.454Z,60.15
2022-08-29T16:18:16.073Z,60.13
2022-08-29T16:20:42.498Z,61.58
2022-08-29T16:23:08.843Z,59.40
2022-08-29T16:25:35.706Z,61.10
2022-08-29T16:28:03.548Z,58.65
2022-08-29T16:30:32.657Z,56.97
2022-08-29T16:32:59.051Z,58.40
2022-08-29T16:35:25.394Z,57.17
2022-08-29T16:37:59.685Z,55.85
2022-08-29T16:40:29.667Z,56.42
2022-08-29T16:42:56.075Z,55.65
2022-08-29T16:45:22.399Z,55.58
2022-08-29T16:47:48.738Z,55.30
2022-08-29T16:50:15.057Z,53.70
2022-08-29T16:52:41.430Z,54.28
2022-08-29T16:55:07.820Z,54.42
2022-08-29T16:57:34.177Z,54.45
2022-08-29T17:00:00.589Z,51.40
2022-08-29T17:02:27.102Z,52.63
2022-08-29T17:04:53.650Z,52.60
2022-08-29T17:07:20.153Z,50.72
2022-08-29T17:09:46.676Z,53.28
2022-08-29T17:12:12.992Z,51.53
2022-08-29T17:14:39.435Z,53.22
2022-08-29T17:17:05.779Z,51.92
2022-08-29T17:19:33.534Z,50.35
2022-08-29T17:22:01.787Z,50.60
2022-08-29T17:24:28.331Z,49.90
2022-08-29T17:26:54.642Z,49.65
2022-08-29T17:29:20.945Z,49.63
2022-08-29T17:31:47.257Z,48.47
2022-08-29T17:34:13.546Z,49.42
2022-08-29T17:36:39.852Z,50.40
2022-08-29T17:39:06.418Z,49.97
2022-08-29T17:41:34.926Z,49.28
2022-08-29T17:44:01.349Z,48.53
2022-08-29T17:46:29.737Z,47.83
2022-08-29T17:48:56.496Z,47.28
2022-08-29T17:51:23.078Z,46.45
2022-08-29T17:53:50.425Z,47.45
2022-08-29T17:56:16.758Z,49.28
2022-08-29T17:58:43.722Z,47.85
2022-08-29T18:01:15.071Z,46.95
2022-08-29T18:03:42.270Z,46.88
2022-08-29T18:06:08.737Z,47.63
2022-08-29T18:08:35.041Z,46.83
2022-08-29T18:11:01.394Z,47.72
2022-08-29T18:13:27.718Z,46.03
2022-08-29T18:15:54.973Z,46.97
2022-08-29T18:18:21.278Z,47.08
2022-08-29T18:20:49.361Z,46.88
2022-08-29T18:23:15.980Z,45.05
2022-08-29T18:25:42.283Z,45.58
2022-08-29T18:28:08.827Z,45.53
2022-08-29T18:30:35.515Z,45.60
2022-08-29T18:33:02.158Z,46.03
2022-08-29T18:35:28.556Z,44.40
2022-08-29T18:37:54.957Z,44.78
2022-08-29T18:40:21.559Z,44.22
2022-08-29T18:42:48.103Z,44.75
2022-08-29T18:45:14.470Z,44.50
2022-08-29T18:47:40.810Z,42.97
2022-08-29T18:50:07.291Z,39.20
2022-08-29T18:52:39.049Z,39.25
2022-08-29T18:55:05.779Z,39.78
2022-08-29T18:57:32.181Z,40.58
2022-08-29T18:59:58.540Z,35.40
2022-08-29T19:02:24.936Z,20.83
2022-08-29T19:04:51.313Z,15.05
2022-08-29T19:07:24.133Z,15.40
2022-08-29T19:09:50.780Z,16.02
2022-08-29T19:12:17.309Z,17.48
2022-08-29T19:14:46.141Z,19.98
2022-08-29T19:17:12.625Z,19.35
2022-08-29T19:19:38.950Z,18.77
2022-08-29T19:22:05.738Z,18.67
2022-08-29T19:24:32.145Z,221.68
2022-08-29T19:26:58.528Z,431.75
2022-08-29T19:29:24.861Z,494.30
2022-08-29T19:31:51.248Z,327.13
2022-08-29T19:34:17.558Z,252.40
2022-08-29T19:36:46.855Z,209.85
2022-08-29T19:39:13.558Z,185.38
2022-08-29T19:41:41.038Z,170.82
2022-08-29T19:44:07.468Z,162.15
2022-08-29T19:46:34.146Z,153.55
2022-08-29T19:49:01.130Z,162.48
2022-08-29T19:51:27.665Z,159.60
2022-08-29T19:53:54.025Z,147.45
2022-08-29T19:56:20.365Z,151.43
2022-08-29T19:58:46.794Z,120.85
2022-08-29T20:01:16.001Z,131.68
2022-08-29T20:03:42.408Z,140.30
2022-08-29T20:06:08.876Z,337.98
2022-08-29T20:08:35.150Z,598.97
2022-08-29T20:11:02.669Z,360.45
2022-08-29T20:13:34.109Z,320.08
2022-08-29T20:16:01.820Z,288.88
2022-08-29T20:18:28.254Z,269.60
2022-08-29T20:20:54.644Z,255.93
2022-08-29T20:23:21.021Z,376.77
2022-08-29T20:25:47.585Z,503.90
2022-08-29T20:30:59.085Z,386.83
2022-08-29T20:33:25.601Z,366.98
2022-08-29T20:35:54.304Z,356.10
2022-08-29T20:38:20.705Z,350.50
2022-08-29T20:40:47.389Z,479.63
2022-08-29T20:43:13.765Z,572.47
2022-08-29T20:45:40.062Z,411.63
2022-08-29T20:48:06.641Z,373.25
2022-08-29T20:50:33.043Z,415.70
2022-08-29T20:52:59.478Z,413.38
2022-08-29T20:55:25.853Z,441.25
2022-08-29T20:57:52.289Z,459.38
2022-08-29T21:00:19.944Z,444.42
2022-08-29T21:02:46.353Z,436.33
2022-08-29T21:05:12.680Z,426.63
2022-08-29T21:07:39.230Z,417.67
2022-08-29T21:10:05.515Z,410.98
2022-08-29T21:12:31.953Z,398.25
2022-08-29T21:14:58.245Z,394.50
2022-08-29T21:17:24.518Z,389.10
2022-08-29T21:19:50.898Z,391.95
2022-08-29T21:22:18.943Z,392.15
2022-08-29T21:24:48.049Z,386.90
2022-08-29T21:27:14.433Z,381.40
2022-08-29T21:29:40.748Z,376.98
2022-08-29T21:32:07.296Z,375.23
2022-08-29T21:34:33.888Z,377.83
2022-08-29T21:37:00.231Z,374.20
2022-08-29T21:39:28.372Z,368.23
2022-08-29T21:41:55.459Z,368.52
2022-08-29T21:44:21.712Z,361.67
2022-08-29T21:46:51.189Z,366.47
2022-08-29T21:49:17.728Z,365.27
2022-08-29T21:51:44.111Z,349.00
2022-08-29T21:54:13.627Z,349.08
2022-08-29T21:56:40.248Z,348.48
2022-08-29T21:59:06.913Z,344.48
2022-08-29T22:01:33.356Z,350.48
2022-08-29T22:03:59.702Z,334.58
2022-08-29T22:06:27.590Z,332.52
2022-08-29T22:08:54.092Z,325.77
2022-08-29T22:11:21.961Z,326.58
2022-08-29T22:13:49.117Z,314.45
2022-08-29T22:16:16.315Z,315.23
2022-08-29T22:18:42.610Z,317.70
2022-08-29T22:21:12.262Z,310.48
2022-08-29T22:23:41.508Z,307.83
2022-08-29T22:26:07.901Z,309.65
2022-08-29T22:28:34.224Z,299.80
2022-08-29T22:31:00.652Z,298.65
2022-08-29T22:33:27.026Z,294.65
2022-08-29T22:35:53.522Z,300.05
2022-08-29T22:38:19.969Z,290.60
2022-08-29T22:40:46.445Z,283.45
2022-08-29T22:43:12.792Z,286.42
2022-08-29T22:45:39.179Z,289.90
2022-08-29T22:48:05.799Z,287.80
2022-08-29T22:50:32.225Z,280.15
2022-08-29T22:52:58.933Z,277.70
2022-08-29T22:57:50.496Z,276.70
2022-08-29T23:00:16.901Z,282.75
2022-08-29T23:02:43.307Z,274.17
2022-08-29T23:05:10.210Z,266.73
2022-08-29T23:07:36.912Z,267.70
2022-08-29T23:10:03.242Z,267.63
2022-08-29T23:12:29.645Z,260.73
2022-08-29T23:14:55.966Z,257.58
2022-08-29T23:17:22.314Z,257.35
2022-08-29T23:19:49.935Z,261.98
2022-08-29T23:22:16.398Z,254.00
2022-08-29T23:24:58.265Z,254.25
2022-08-29T23:27:25.610Z,249.57
2022-08-29T23:29:51.898Z,250.60
2022-08-29T23:32:22.346Z,247.38
2022-08-29T23:34:48.673Z,250.80
2022-08-29T23:37:14.960Z,240.30
2022-08-29T23:39:41.278Z,243.70
2022-08-29T23:42:08.011Z,239.75
2022-08-29T23:44:34.342Z,231.80
2022-08-29T23:47:00.770Z,240.07
2022-08-29T23:49:27.320Z,234.32
2022-08-29T23:51:53.672Z,243.48
2022-08-29T23:54:20.253Z,228.80
2022-08-29T23:56:46.553Z,229.73
2022-08-29T23:59:13.059Z,221.55
